createdAt,value
2017-12-15T00:04:19.502Z,2.80
2017-12-15T00:09:22.965Z,2.80
2017-12-15T00:14:26.541Z,2.70
2017-12-15T00:19:29.196Z,2.70
2017-12-15T00:24:32.154Z,2.70
2017-12-15T00:29:34.858Z,2.60
2017-12-15T00:34:38.225Z,2.50
2017-12-15T00:39:41.075Z,2.40
2017-12-15T00:44:44.907Z,2.40
2017-12-15T00:49:47.597Z,2.30
2017-12-15T00:54:51.233Z,2.20
2017-12-15T00:59:54.257Z,2.10
2017-12-15T01:04:57.781Z,1.90
2017-12-15T01:10:00.653Z,1.90
2017-12-15T01:15:04.374Z,1.90
2017-12-15T01:20:08.201Z,1.80
2017-12-15T01:25:11.316Z,1.80
2017-12-15T01:30:14.265Z,1.90
2017-12-15T01:35:17.465Z,1.90
2017-12-15T01:40:20.447Z,2.00
2017-12-15T01:45:23.471Z,2.10
2017-12-15T01:50:26.269Z,2.20
2017-12-15T01:55:30.002Z,2.30
2017-12-15T02:00:32.630Z,2.40
2017-12-15T02:05:35.354Z,2.50
2017-12-15T02:10:38.897Z,2.50
2017-12-15T02:15:42.326Z,2.40
2017-12-15T02:20:44.945Z,2.40
2017-12-15T02:25:48.527Z,2.30
2017-12-15T02:30:51.166Z,2.20
2017-12-15T02:35:54.752Z,2.10
2017-12-15T02:40:57.582Z,2.00
2017-12-15T02:46:00.348Z,1.90
2017-12-15T02:51:03.791Z,1.90
2017-12-15T02:56:07.392Z,1.90
2017-12-15T03:01:10.167Z,1.80
2017-12-15T03:06:15.026Z,1.80
2017-12-15T03:11:18.582Z,1.70
2017-12-15T03:16:21.674Z,1.70
2017-12-15T03:21:25.301Z,1.70
2017-12-15T03:26:28.469Z,1.60
2017-12-15T03:31:31.121Z,1.60
2017-12-15T03:36:34.984Z,1.60
2017-12-15T03:41:37.591Z,1.60
2017-12-15T03:46:40.379Z,1.60
2017-12-15T03:51:43.058Z,1.60
2017-12-15T03:56:46.043Z,1.70
2017-12-15T04:01:49.560Z,1.90
2017-12-15T04:06:53.210Z,2.00
2017-12-15T04:11:55.838Z,1.90
2017-12-15T04:16:58.533Z,2.00
2017-12-15T04:22:01.183Z,2.00
2017-12-15T04:27:04.272Z,2.10
2017-12-15T04:32:07.810Z,2.20
2017-12-15T04:37:10.970Z,2.10
2017-12-15T04:42:13.636Z,2.20
2017-12-15T04:47:16.640Z,2.30
2017-12-15T04:52:19.276Z,2.30
2017-12-15T04:57:22.237Z,2.40
2017-12-15T05:02:24.908Z,2.40
2017-12-15T05:07:28.683Z,2.40
2017-12-15T05:12:31.377Z,2.40
2017-12-15T05:17:34.645Z,2.50
2017-12-15T05:22:37.292Z,2.50
2017-12-15T05:27:40.083Z,2.40
2017-12-15T05:32:43.495Z,2.50
2017-12-15T05:37:46.449Z,2.50
2017-12-15T05:42:49.054Z,2.40
2017-12-15T05:47:51.709Z,2.50
2017-12-15T05:52:54.356Z,2.40
2017-12-15T05:57:57.617Z,2.40
2017-12-15T06:03:00.312Z,2.30
2017-12-15T06:08:03.221Z,2.30
2017-12-15T06:13:05.855Z,2.30
2017-12-15T06:18:08.615Z,2.30
2017-12-15T06:23:11.257Z,2.20
2017-12-15T06:28:14.858Z,2.30
2017-12-15T06:33:17.640Z,2.30
2017-12-15T06:38:20.330Z,2.40
2017-12-15T06:43:23.855Z,2.60
2017-12-15T06:48:27.591Z,2.60
2017-12-15T06:53:30.305Z,2.60
2017-12-15T06:58:33.401Z,2.60
2017-12-15T07:03:36.044Z,2.70
2017-12-15T07:08:39.201Z,2.80
2017-12-15T07:13:41.905Z,2.90
2017-12-15T07:18:45.497Z,2.90
2017-12-15T07:23:48.155Z,2.90
2017-12-15T07:28:51.932Z,3.10
2017-12-15T07:33:55.339Z,3.10
2017-12-15T07:38:59.560Z,3.20
2017-12-15T07:44:03.050Z,3.20
2017-12-15T07:49:05.852Z,3.20
2017-12-15T07:54:08.545Z,3.30
2017-12-15T07:59:11.636Z,3.30
2017-12-15T08:04:14.354Z,3.40
2017-12-15T08:09:17.558Z,3.40
2017-12-15T08:14:20.352Z,3.40
2017-12-15T08:19:23.687Z,3.50
2017-12-15T08:24:26.383Z,3.50
2017-12-15T08:29:29.690Z,3.50
2017-12-15T08:34:32.434Z,3.40
2017-12-15T08:39:36.053Z,3.50
2017-12-15T08:44:38.756Z,3.50
2017-12-15T08:49:41.812Z,3.40
2017-12-15T08:54:44.445Z,3.30
2017-12-15T08:59:48.876Z,3.40
2017-12-15T09:04:51.653Z,3.30
2017-12-15T09:09:54.969Z,3.40
2017-12-15T09:14:57.703Z,3.40
2017-12-15T09:20:00.675Z,3.40
2017-12-15T09:25:03.488Z,3.30
2017-12-15T09:30:09.327Z,3.40
2017-12-15T09:35:15.300Z,3.40
2017-12-15T09:40:22.434Z,3.40
2017-12-15T09:45:28.947Z,3.40
2017-12-15T09:50:32.197Z,3.60
2017-12-15T09:55:35.352Z,3.50
2017-12-15T10:00:39.162Z,3.50
2017-12-15T10:05:43.715Z,3.40
2017-12-15T10:10:47.756Z,3.40
2017-12-15T10:15:51.278Z,3.40
2017-12-15T10:20:55.304Z,3.30
2017-12-15T10:25:59.644Z,3.00
2017-12-15T10:31:06.102Z,3.00
2017-12-15T10:36:09.034Z,2.90
2017-12-15T10:41:13.787Z,2.80
2017-12-15T10:46:18.078Z,2.80
2017-12-15T10:51:22.065Z,2.70
2017-12-15T10:56:25.685Z,2.70
2017-12-15T11:01:30.527Z,2.70
2017-12-15T11:06:33.586Z,2.50
2017-12-15T11:11:38.431Z,2.30
2017-12-15T11:16:41.064Z,2.30
2017-12-15T11:21:44.664Z,2.00
2017-12-15T11:26:48.122Z,2.00
2017-12-15T11:31:51.982Z,2.10
2017-12-15T11:36:55.009Z,2.10
2017-12-15T11:41:59.602Z,1.90
2017-12-15T11:47:02.919Z,1.80
2017-12-15T11:52:06.032Z,1.90
2017-12-15T11:57:08.950Z,1.80
2017-12-15T12:02:14.047Z,1.80
2017-12-15T12:07:18.628Z,1.70
2017-12-15T12:18:53.534Z,1.80
2017-12-15T12:35:12.193Z,2.10
